sensor_id;sensor_type;location;lat;lon;timestamp;pressure;altitude;pressure_sealevel;temperature;humidity
72262;BME280;60173;52.112;8.648;2022-08-11T00:02:25;101382.75;;;15.95;67.71
72262;BME280;60173;52.112;8.648;2022-08-11T00:04:53;101379.66;;;15.88;67.81
72262;BME280;60173;52.112;8.648;2022-08-11T00:07:22;101383.19;;;15.89;67.59
72262;BME280;60173;52.112;8.648;2022-08-11T00:09:50;101379.72;;;15.97;67.17
72262;BME280;60173;52.112;8.648;2022-08-11T00:12:17;101373.03;;;15.89;67.46
72262;BME280;60173;52.112;8.648;2022-08-11T00:14:45;101382.69;;;15.87;67.32
72262;BME280;60173;52.112;8.648;2022-08-11T00:17:13;101385.19;;;15.74;67.90
72262;BME280;60173;52.112;8.648;2022-08-11T00:19:44;101376.78;;;15.71;68.17
72262;BME280;60173;52.112;8.648;2022-08-11T00:22:32;101378.19;;;15.91;66.79
72262;BME280;60173;52.112;8.648;2022-08-11T00:25:07;101380.19;;;15.76;67.61
72262;BME280;60173;52.112;8.648;2022-08-11T00:27:36;101377.38;;;15.68;67.93
72262;BME280;60173;52.112;8.648;2022-08-11T00:30:04;101372.50;;;15.65;67.85
72262;BME280;60173;52.112;8.648;2022-08-11T00:32:31;101372.00;;;15.63;68.00
72262;BME280;60173;52.112;8.648;2022-08-11T00:34:59;101378.28;;;15.63;67.96
72262;BME280;60173;52.112;8.648;2022-08-11T00:37:47;101377.91;;;15.56;68.29
72262;BME280;60173;52.112;8.648;2022-08-11T00:40:26;101382.13;;;15.40;69.05
72262;BME280;60173;52.112;8.648;2022-08-11T00:46:01;101386.09;;;15.20;69.92
72262;BME280;60173;52.112;8.648;2022-08-11T00:48:50;101384.59;;;15.13;70.62
72262;BME280;60173;52.112;8.648;2022-08-11T01:00:21;101386.81;;;14.98;70.43
72262;BME280;60173;52.112;8.648;2022-08-11T01:03:11;101384.41;;;14.96;70.46
72262;BME280;60173;52.112;8.648;2022-08-11T01:06:02;101386.44;;;14.90;70.84
72262;BME280;60173;52.112;8.648;2022-08-11T01:08:40;101390.69;;;14.97;70.65
72262;BME280;60173;52.112;8.648;2022-08-11T01:17:57;101393.94;;;14.99;69.81
72262;BME280;60173;52.112;8.648;2022-08-11T01:29:31;101396.34;;;14.86;70.23
72262;BME280;60173;52.112;8.648;2022-08-11T01:32:29;101395.75;;;14.89;70.29
72262;BME280;60173;52.112;8.648;2022-08-11T01:40:43;101396.56;;;14.76;70.99
72262;BME280;60173;52.112;8.648;2022-08-11T01:46:27;101403.84;;;14.81;71.25
72262;BME280;60173;52.112;8.648;2022-08-11T01:49:07;101401.41;;;14.65;71.69
72262;BME280;60173;52.112;8.648;2022-08-11T01:52:27;101403.16;;;14.42;72.94
72262;BME280;60173;52.112;8.648;2022-08-11T01:55:20;101403.78;;;14.39;73.13
72262;BME280;60173;52.112;8.648;2022-08-11T02:04:21;101396.97;;;14.56;72.27
72262;BME280;60173;52.112;8.648;2022-08-11T02:07:13;101395.31;;;14.55;72.55
72262;BME280;60173;52.112;8.648;2022-08-11T02:12:52;101395.84;;;14.57;72.97
72262;BME280;60173;52.112;8.648;2022-08-11T02:15:45;101397.97;;;14.60;73.00
72262;BME280;60173;52.112;8.648;2022-08-11T02:18:32;101394.72;;;14.58;73.06
72262;BME280;60173;52.112;8.648;2022-08-11T02:21:05;101387.19;;;14.50;73.77
72262;BME280;60173;52.112;8.648;2022-08-11T02:24:02;101390.44;;;14.38;74.80
72262;BME280;60173;52.112;8.648;2022-08-11T02:26:40;101402.13;;;14.24;75.77
72262;BME280;60173;52.112;8.648;2022-08-11T02:29:32;101395.00;;;14.10;76.38
72262;BME280;60173;52.112;8.648;2022-08-11T02:32:14;101393.22;;;14.00;76.72
72262;BME280;60173;52.112;8.648;2022-08-11T02:35:19;101387.81;;;13.81;77.42
72262;BME280;60173;52.112;8.648;2022-08-11T02:38:00;101395.03;;;13.91;77.49
72262;BME280;60173;52.112;8.648;2022-08-11T02:40:44;101391.41;;;13.76;77.20
72262;BME280;60173;52.112;8.648;2022-08-11T02:48:39;101396.88;;;13.95;76.29
72262;BME280;60173;52.112;8.648;2022-08-11T02:54:32;101396.06;;;13.95;75.65
72262;BME280;60173;52.112;8.648;2022-08-11T02:59:50;101400.59;;;13.86;76.45
72262;BME280;60173;52.112;8.648;2022-08-11T03:02:32;101396.81;;;13.82;76.41
72262;BME280;60173;52.112;8.648;2022-08-11T03:10:29;101403.75;;;13.74;77.18
72262;BME280;60173;52.112;8.648;2022-08-11T03:13:18;101403.03;;;13.68;77.20
72262;BME280;60173;52.112;8.648;2022-08-11T03:18:41;101400.50;;;13.72;77.72
72262;BME280;60173;52.112;8.648;2022-08-11T03:21:20;101401.91;;;13.69;77.56
72262;BME280;60173;52.112;8.648;2022-08-11T03:26:46;101406.03;;;13.48;78.97
72262;BME280;60173;52.112;8.648;2022-08-11T03:29:48;101403.66;;;13.41;78.90
72262;BME280;60173;52.112;8.648;2022-08-11T03:32:25;101401.75;;;13.42;78.84
72262;BME280;60173;52.112;8.648;2022-08-11T03:34:54;101401.78;;;13.18;80.05
72262;BME280;60173;52.112;8.648;2022-08-11T03:37:51;101400.34;;;13.01;80.95
72262;BME280;60173;52.112;8.648;2022-08-11T03:47:24;101403.88;;;12.78;81.46
72262;BME280;60173;52.112;8.648;2022-08-11T04:01:39;101408.16;;;12.60;82.39
72262;BME280;60173;52.112;8.648;2022-08-11T04:13:12;101402.03;;;12.73;81.76
72262;BME280;60173;52.112;8.648;2022-08-11T04:30:10;101399.47;;;13.06;80.43
72262;BME280;60173;52.112;8.648;2022-08-11T04:33:11;101406.78;;;13.10;80.22
72262;BME280;60173;52.112;8.648;2022-08-11T04:36:14;101397.50;;;13.11;80.28
72262;BME280;60173;52.112;8.648;2022-08-11T04:38:56;101400.03;;;13.27;80.21
72262;BME280;60173;52.112;8.648;2022-08-11T04:47:49;101400.66;;;13.62;78.50
72262;BME280;60173;52.112;8.648;2022-08-11T04:51:07;101400.50;;;13.72;77.92
72262;BME280;60173;52.112;8.648;2022-08-11T04:53:55;101402.78;;;13.84;77.85
72262;BME280;60173;52.112;8.648;2022-08-11T04:56:25;101411.34;;;13.96;77.54
72262;BME280;60173;52.112;8.648;2022-08-11T04:59:11;101403.88;;;14.01;76.96
72262;BME280;60173;52.112;8.648;2022-08-11T05:05:14;101404.72;;;14.16;76.40
72262;BME280;60173;52.112;8.648;2022-08-11T05:16:09;101410.69;;;14.51;75.76
72262;BME280;60173;52.112;8.648;2022-08-11T05:18:47;101418.50;;;14.57;75.19
72262;BME280;60173;52.112;8.648;2022-08-11T05:21:18;101406.06;;;14.65;75.01
72262;BME280;60173;52.112;8.648;2022-08-11T05:23:53;101411.66;;;14.74;75.09
72262;BME280;60173;52.112;8.648;2022-08-11T05:26:21;101409.53;;;14.84;74.74
72262;BME280;60173;52.112;8.648;2022-08-11T05:29:45;101412.75;;;14.86;74.96
72262;BME280;60173;52.112;8.648;2022-08-11T05:32:15;101416.63;;;14.99;74.49
72262;BME280;60173;52.112;8.648;2022-08-11T05:34:44;101406.59;;;15.08;74.47
72262;BME280;60173;52.112;8.648;2022-08-11T05:37:18;101408.50;;;15.22;73.95
72262;BME280;60173;52.112;8.648;2022-08-11T05:40:05;101404.94;;;15.35;73.27
72262;BME280;60173;52.112;8.648;2022-08-11T05:42:34;101404.19;;;15.57;72.73
72262;BME280;60173;52.112;8.648;2022-08-11T05:45:14;101410.59;;;15.89;71.78
72262;BME280;60173;52.112;8.648;2022-08-11T05:47:42;101404.00;;;16.12;70.03
72262;BME280;60173;52.112;8.648;2022-08-11T05:50:10;101400.78;;;16.41;69.21
72262;BME280;60173;52.112;8.648;2022-08-11T05:52:44;101402.78;;;16.81;67.57
72262;BME280;60173;52.112;8.648;2022-08-11T05:55:15;101400.47;;;17.31;66.32
72262;BME280;60173;52.112;8.648;2022-08-11T05:57:41;101402.75;;;17.73;63.81
72262;BME280;60173;52.112;8.648;2022-08-11T06:00:17;101407.81;;;17.88;63.08
72262;BME280;60173;52.112;8.648;2022-08-11T06:02:53;101406.16;;;18.04;61.84
72262;BME280;60173;52.112;8.648;2022-08-11T06:05:20;101408.53;;;18.32;61.63
72262;BME280;60173;52.112;8.648;2022-08-11T06:07:53;101409.72;;;18.78;60.57
72262;BME280;60173;52.112;8.648;2022-08-11T06:10:31;101405.81;;;19.38;57.88
72262;BME280;60173;52.112;8.648;2022-08-11T06:12:58;101399.78;;;20.20;56.02
72262;BME280;60173;52.112;8.648;2022-08-11T06:15:25;101390.81;;;21.71;52.86
72262;BME280;60173;52.112;8.648;2022-08-11T06:17:53;101391.75;;;23.14;48.83
72262;BME280;60173;52.112;8.648;2022-08-11T06:20:21;101385.31;;;24.23;45.87
72262;BME280;60173;52.112;8.648;2022-08-11T06:22:54;101384.97;;;24.97;44.05
72262;BME280;60173;52.112;8.648;2022-08-11T06:25:29;101384.78;;;25.69;42.74
72262;BME280;60173;52.112;8.648;2022-08-11T06:27:56;101387.97;;;26.43;41.27
72262;BME280;60173;52.112;8.648;2022-08-11T06:30:35;101389.56;;;26.88;39.84
72262;BME280;60173;52.112;8.648;2022-08-11T06:33:02;101389.84;;;27.31;39.50
72262;BME280;60173;52.112;8.648;2022-08-11T06:36:06;101393.03;;;27.30;38.63
72262;BME280;60173;52.112;8.648;2022-08-11T06:38:37;101396.94;;;26.66;38.32
72262;BME280;60173;52.112;8.648;2022-08-11T06:41:37;101387.31;;;26.53;39.24
72262;BME280;60173;52.112;8.648;2022-08-11T06:46:45;101380.91;;;25.44;41.51
72262;BME280;60173;52.112;8.648;2022-08-11T06:49:14;101385.25;;;24.19;43.12
72262;BME280;60173;52.112;8.648;2022-08-11T06:51:46;101392.94;;;22.97;45.44
72262;BME280;60173;52.112;8.648;2022-08-11T06:54:15;101394.81;;;22.01;47.76
72262;BME280;60173;52.112;8.648;2022-08-11T06:56:44;101394.00;;;22.01;49.99
72262;BME280;60173;52.112;8.648;2022-08-11T06:59:11;101394.78;;;22.14;50.47
72262;BME280;60173;52.112;8.648;2022-08-11T07:04:48;101389.13;;;22.10;48.88
72262;BME280;60173;52.112;8.648;2022-08-11T07:12:39;101388.56;;;21.48;50.12
72262;BME280;60173;52.112;8.648;2022-08-11T07:15:09;101382.22;;;21.88;48.76
72262;BME280;60173;52.112;8.648;2022-08-11T07:17:40;101391.75;;;22.19;47.45
72262;BME280;60173;52.112;8.648;2022-08-11T07:20:08;101390.66;;;22.07;47.17
72262;BME280;60173;52.112;8.648;2022-08-11T07:22:36;101384.75;;;21.93;49.55
72262;BME280;60173;52.112;8.648;2022-08-11T07:25:12;101388.22;;;21.90;47.90
72262;BME280;60173;52.112;8.648;2022-08-11T07:28:03;101388.22;;;22.34;46.92
72262;BME280;60173;52.112;8.648;2022-08-11T07:30:33;101386.97;;;22.47;45.94
72262;BME280;60173;52.112;8.648;2022-08-11T07:33:01;101389.13;;;22.38;47.08
72262;BME280;60173;52.112;8.648;2022-08-11T07:35:52;101388.41;;;22.25;48.25
72262;BME280;60173;52.112;8.648;2022-08-11T07:38:26;101383.84;;;22.96;45.44
72262;BME280;60173;52.112;8.648;2022-08-11T07:40:57;101384.63;;;23.13;43.59
72262;BME280;60173;52.112;8.648;2022-08-11T07:43:24;101385.09;;;23.34;44.71
72262;BME280;60173;52.112;8.648;2022-08-11T07:45:51;101381.31;;;23.42;43.96
72262;BME280;60173;52.112;8.648;2022-08-11T07:48:18;101377.94;;;23.33;42.97
72262;BME280;60173;52.112;8.648;2022-08-11T07:50:46;101385.94;;;23.19;44.61
72262;BME280;60173;52.112;8.648;2022-08-11T07:53:17;101381.78;;;23.29;44.86
72262;BME280;60173;52.112;8.648;2022-08-11T07:55:43;101377.09;;;23.68;44.58
72262;BME280;60173;52.112;8.648;2022-08-11T07:58:20;101379.97;;;23.91;43.99
72262;BME280;60173;52.112;8.648;2022-08-11T08:00:53;101389.53;;;23.94;43.85
72262;BME280;60173;52.112;8.648;2022-08-11T08:03:20;101384.19;;;24.04;44.39
72262;BME280;60173;52.112;8.648;2022-08-11T08:05:48;101384.63;;;24.29;43.46
72262;BME280;60173;52.112;8.648;2022-08-11T08:08:15;101380.75;;;24.34;42.72
72262;BME280;60173;52.112;8.648;2022-08-11T08:10:42;101377.25;;;24.60;41.95
72262;BME280;60173;52.112;8.648;2022-08-11T08:13:09;101385.72;;;24.02;43.55
72262;BME280;60173;52.112;8.648;2022-08-11T08:15:36;101392.56;;;24.08;43.97
72262;BME280;60173;52.112;8.648;2022-08-11T08:18:04;101378.75;;;24.54;44.66
72262;BME280;60173;52.112;8.648;2022-08-11T08:20:53;101382.81;;;24.60;44.59
72262;BME280;60173;52.112;8.648;2022-08-11T08:23:25;101390.19;;;24.75;43.48
72262;BME280;60173;52.112;8.648;2022-08-11T08:25:52;101386.03;;;24.89;43.89
72262;BME280;60173;52.112;8.648;2022-08-11T08:28:19;101377.81;;;24.96;44.58
72262;BME280;60173;52.112;8.648;2022-08-11T08:30:48;101379.72;;;25.15;43.84
72262;BME280;60173;52.112;8.648;2022-08-11T08:33:19;101381.69;;;25.14;43.57
72262;BME280;60173;52.112;8.648;2022-08-11T08:35:50;101377.72;;;25.15;42.27
72262;BME280;60173;52.112;8.648;2022-08-11T08:38:21;101379.47;;;25.57;40.59
72262;BME280;60173;52.112;8.648;2022-08-11T08:40:51;101374.53;;;25.77;40.03
72262;BME280;60173;52.112;8.648;2022-08-11T08:43:22;101372.81;;;25.99;39.34
72262;BME280;60173;52.112;8.648;2022-08-11T08:45:54;101371.44;;;25.82;39.75
72262;BME280;60173;52.112;8.648;2022-08-11T08:48:22;101369.47;;;25.83;39.46
72262;BME280;60173;52.112;8.648;2022-08-11T08:50:55;101367.16;;;25.58;39.53
72262;BME280;60173;52.112;8.648;2022-08-11T08:53:24;101370.00;;;25.96;40.17
72262;BME280;60173;52.112;8.648;2022-08-11T08:55:52;101360.25;;;26.12;39.57
72262;BME280;60173;52.112;8.648;2022-08-11T08:58:20;101363.09;;;26.20;39.04
72262;BME280;60173;52.112;8.648;2022-08-11T09:00:51;101362.53;;;26.03;39.67
72262;BME280;60173;52.112;8.648;2022-08-11T09:03:18;101365.25;;;26.41;39.10
72262;BME280;60173;52.112;8.648;2022-08-11T09:06:04;101365.41;;;26.55;40.12
72262;BME280;60173;52.112;8.648;2022-08-11T09:08:32;101363.50;;;26.63;39.18
72262;BME280;60173;52.112;8.648;2022-08-11T09:11:01;101365.44;;;26.58;39.86
72262;BME280;60173;52.112;8.648;2022-08-11T09:13:28;101357.84;;;26.55;36.55
72262;BME280;60173;52.112;8.648;2022-08-11T09:15:54;101351.25;;;26.78;37.04
72262;BME280;60173;52.112;8.648;2022-08-11T09:18:21;101352.97;;;26.97;34.87
72262;BME280;60173;52.112;8.648;2022-08-11T09:20:48;101361.03;;;27.13;35.33
72262;BME280;60173;52.112;8.648;2022-08-11T09:23:15;101350.75;;;27.17;36.56
72262;BME280;60173;52.112;8.648;2022-08-11T09:26:01;101353.09;;;27.15;32.21
72262;BME280;60173;52.112;8.648;2022-08-11T09:28:29;101350.03;;;27.38;33.40
72262;BME280;60173;52.112;8.648;2022-08-11T09:30:57;101355.63;;;27.41;32.97
72262;BME280;60173;52.112;8.648;2022-08-11T09:33:25;101347.75;;;27.68;33.20
72262;BME280;60173;52.112;8.648;2022-08-11T09:35:52;101339.41;;;27.76;33.46
72262;BME280;60173;52.112;8.648;2022-08-11T09:38:23;101343.00;;;27.76;32.15
72262;BME280;60173;52.112;8.648;2022-08-11T09:40:51;101346.09;;;27.49;33.30
72262;BME280;60173;52.112;8.648;2022-08-11T09:43:22;101344.53;;;27.59;33.91
72262;BME280;60173;52.112;8.648;2022-08-11T09:45:51;101336.69;;;27.90;33.62
72262;BME280;60173;52.112;8.648;2022-08-11T09:48:19;101335.88;;;27.97;33.45
72262;BME280;60173;52.112;8.648;2022-08-11T09:50:52;101337.09;;;28.10;32.99
72262;BME280;60173;52.112;8.648;2022-08-11T09:53:20;101328.72;;;28.35;33.62
72262;BME280;60173;52.112;8.648;2022-08-11T09:56:15;101324.38;;;28.59;32.97
72262;BME280;60173;52.112;8.648;2022-08-11T09:58:43;101323.94;;;28.39;32.60
72262;BME280;60173;52.112;8.648;2022-08-11T10:01:11;101328.78;;;28.53;32.72
72262;BME280;60173;52.112;8.648;2022-08-11T10:03:40;101321.56;;;28.66;32.04
72262;BME280;60173;52.112;8.648;2022-08-11T10:06:08;101315.19;;;28.58;30.94
72262;BME280;60173;52.112;8.648;2022-08-11T10:08:38;101316.78;;;28.49;30.17
72262;BME280;60173;52.112;8.648;2022-08-11T10:11:08;101308.78;;;28.26;31.76
72262;BME280;60173;52.112;8.648;2022-08-11T10:13:40;101304.38;;;28.32;30.95
72262;BME280;60173;52.112;8.648;2022-08-11T10:16:29;101304.81;;;28.45;30.82
72262;BME280;60173;52.112;8.648;2022-08-11T10:18:58;101301.59;;;28.39;31.20
72262;BME280;60173;52.112;8.648;2022-08-11T10:21:50;101300.78;;;27.88;31.64
72262;BME280;60173;52.112;8.648;2022-08-11T10:24:16;101303.88;;;27.65;31.55
72262;BME280;60173;52.112;8.648;2022-08-11T10:26:44;101301.09;;;27.65;32.02
72262;BME280;60173;52.112;8.648;2022-08-11T10:29:11;101299.91;;;27.77;30.93
72262;BME280;60173;52.112;8.648;2022-08-11T10:31:39;101288.84;;;28.13;32.50
72262;BME280;60173;52.112;8.648;2022-08-11T10:34:24;101292.38;;;27.78;31.21
72262;BME280;60173;52.112;8.648;2022-08-11T10:36:54;101279.66;;;28.30;30.70
72262;BME280;60173;52.112;8.648;2022-08-11T10:39:22;101284.47;;;28.48;31.47
72262;BME280;60173;52.112;8.648;2022-08-11T10:41:49;101278.47;;;28.53;30.23
72262;BME280;60173;52.112;8.648;2022-08-11T10:44:39;101272.09;;;28.42;29.86
72262;BME280;60173;52.112;8.648;2022-08-11T10:47:08;101268.88;;;28.25;30.76
72262;BME280;60173;52.112;8.648;2022-08-11T10:49:36;101272.09;;;28.56;31.68
72262;BME280;60173;52.112;8.648;2022-08-11T10:52:03;101271.22;;;28.77;30.65
72262;BME280;60173;52.112;8.648;2022-08-11T10:54:32;101263.69;;;28.16;29.48
72262;BME280;60173;52.112;8.648;2022-08-11T10:56:59;101255.72;;;28.51;30.87
72262;BME280;60173;52.112;8.648;2022-08-11T10:59:27;101253.25;;;28.74;31.18
72262;BME280;60173;52.112;8.648;2022-08-11T11:01:54;101254.78;;;29.04;31.01
72262;BME280;60173;52.112;8.648;2022-08-11T11:07:20;101256.63;;;29.36;28.82
72262;BME280;60173;52.112;8.648;2022-08-11T11:09:49;101242.34;;;29.12;28.91
72262;BME280;60173;52.112;8.648;2022-08-11T11:12:39;101248.59;;;29.41;30.08
72262;BME280;60173;52.112;8.648;2022-08-11T11:15:07;101254.22;;;29.38;29.42
72262;BME280;60173;52.112;8.648;2022-08-11T11:17:46;101236.59;;;29.44;27.89
72262;BME280;60173;52.112;8.648;2022-08-11T11:20:20;101243.78;;;29.49;30.66
72262;BME280;60173;52.112;8.648;2022-08-11T11:23:08;101244.41;;;28.94;28.64
72262;BME280;60173;52.112;8.648;2022-08-11T11:28:59;101240.63;;;29.40;27.30
72262;BME280;60173;52.112;8.648;2022-08-11T11:36:59;101229.31;;;28.73;27.27
72262;BME280;60173;52.112;8.648;2022-08-11T11:39:28;101226.41;;;29.02;29.05
72262;BME280;60173;52.112;8.648;2022-08-11T11:41:58;101221.13;;;29.25;29.57
72262;BME280;60173;52.112;8.648;2022-08-11T11:44:25;101227.03;;;29.38;27.99
72262;BME280;60173;52.112;8.648;2022-08-11T11:46:54;101230.97;;;29.51;26.84
72262;BME280;60173;52.112;8.648;2022-08-11T11:49:23;101223.25;;;28.89;27.28
72262;BME280;60173;52.112;8.648;2022-08-11T11:51:52;101227.72;;;29.60;26.81
72262;BME280;60173;52.112;8.648;2022-08-11T11:54:25;101222.31;;;29.87;28.55
72262;BME280;60173;52.112;8.648;2022-08-11T11:56:53;101220.50;;;29.59;26.38
72262;BME280;60173;52.112;8.648;2022-08-11T11:59:22;101214.81;;;29.07;26.15
72262;BME280;60173;52.112;8.648;2022-08-11T12:01:50;101217.50;;;29.28;27.14
72262;BME280;60173;52.112;8.648;2022-08-11T12:04:19;101222.22;;;29.42;25.69
72262;BME280;60173;52.112;8.648;2022-08-11T12:06:45;101214.91;;;29.59;25.88
72262;BME280;60173;52.112;8.648;2022-08-11T12:09:13;101213.75;;;29.53;25.04
72262;BME280;60173;52.112;8.648;2022-08-11T12:11:40;101211.19;;;29.17;26.26
72262;BME280;60173;52.112;8.648;2022-08-11T12:14:09;101209.31;;;28.78;26.51
72262;BME280;60173;52.112;8.648;2022-08-11T12:16:39;101202.66;;;28.47;26.43
72262;BME280;60173;52.112;8.648;2022-08-11T12:19:09;101201.25;;;28.98;28.94
72262;BME280;60173;52.112;8.648;2022-08-11T12:21:37;101192.50;;;29.66;26.48
72262;BME280;60173;52.112;8.648;2022-08-11T12:24:04;101185.97;;;29.84;26.08
72262;BME280;60173;52.112;8.648;2022-08-11T12:26:32;101194.13;;;29.64;25.28
72262;BME280;60173;52.112;8.648;2022-08-11T12:29:00;101178.81;;;29.76;25.72
72262;BME280;60173;52.112;8.648;2022-08-11T12:31:28;101174.53;;;29.64;24.12
72262;BME280;60173;52.112;8.648;2022-08-11T12:34:02;101182.00;;;29.78;24.04
72262;BME280;60173;52.112;8.648;2022-08-11T12:36:32;101179.25;;;29.74;25.65
72262;BME280;60173;52.112;8.648;2022-08-11T12:39:04;101177.81;;;30.00;24.71
72262;BME280;60173;52.112;8.648;2022-08-11T12:41:49;101171.00;;;30.01;24.04
72262;BME280;60173;52.112;8.648;2022-08-11T12:44:17;101162.13;;;29.61;24.33
72262;BME280;60173;52.112;8.648;2022-08-11T12:46:50;101160.97;;;30.04;25.04
72262;BME280;60173;52.112;8.648;2022-08-11T12:49:18;101160.16;;;30.45;25.81
72262;BME280;60173;52.112;8.648;2022-08-11T12:51:51;101147.84;;;29.45;25.57
72262;BME280;60173;52.112;8.648;2022-08-11T12:55:01;101149.25;;;29.71;25.41
72262;BME280;60173;52.112;8.648;2022-08-11T12:57:32;101152.72;;;29.37;26.07
72262;BME280;60173;52.112;8.648;2022-08-11T13:00:04;101152.16;;;28.94;25.45
72262;BME280;60173;52.112;8.648;2022-08-11T13:02:32;101151.50;;;29.38;25.76
72262;BME280;60173;52.112;8.648;2022-08-11T13:05:07;101153.31;;;29.59;25.60
72262;BME280;60173;52.112;8.648;2022-08-11T13:07:35;101155.47;;;29.41;25.52
72262;BME280;60173;52.112;8.648;2022-08-11T13:10:18;101153.41;;;30.01;25.37
72262;BME280;60173;52.112;8.648;2022-08-11T13:12:44;101148.06;;;29.16;26.03
72262;BME280;60173;52.112;8.648;2022-08-11T13:15:17;101142.88;;;29.70;26.48
72262;BME280;60173;52.112;8.648;2022-08-11T13:17:45;101140.47;;;29.13;25.82
72262;BME280;60173;52.112;8.648;2022-08-11T13:20:16;101148.91;;;29.06;26.46
72262;BME280;60173;52.112;8.648;2022-08-11T13:22:43;101143.88;;;29.39;26.03
72262;BME280;60173;52.112;8.648;2022-08-11T13:25:11;101133.59;;;29.28;26.13
72262;BME280;60173;52.112;8.648;2022-08-11T13:27:42;101139.75;;;30.06;26.20
72262;BME280;60173;52.112;8.648;2022-08-11T13:30:10;101144.78;;;29.28;25.00
72262;BME280;60173;52.112;8.648;2022-08-11T13:32:39;101130.47;;;29.71;24.69
72262;BME280;60173;52.112;8.648;2022-08-11T13:35:11;101128.19;;;29.56;24.75
72262;BME280;60173;52.112;8.648;2022-08-11T13:37:38;101127.66;;;29.75;25.15
72262;BME280;60173;52.112;8.648;2022-08-11T13:40:25;101129.19;;;29.80;24.74
72262;BME280;60173;52.112;8.648;2022-08-11T13:43:13;101133.81;;;29.97;25.11
72262;BME280;60173;52.112;8.648;2022-08-11T13:45:41;101124.44;;;30.14;25.77
72262;BME280;60173;52.112;8.648;2022-08-11T13:48:09;101126.72;;;29.89;24.66
72262;BME280;60173;52.112;8.648;2022-08-11T13:50:36;101115.81;;;29.98;25.58
72262;BME280;60173;52.112;8.648;2022-08-11T13:53:03;101124.94;;;30.06;24.06
72262;BME280;60173;52.112;8.648;2022-08-11T13:55:29;101117.22;;;30.17;24.17
72262;BME280;60173;52.112;8.648;2022-08-11T13:58:16;101110.41;;;30.18;24.97
72262;BME280;60173;52.112;8.648;2022-08-11T14:01:05;101107.88;;;29.93;25.51
72262;BME280;60173;52.112;8.648;2022-08-11T14:03:52;101097.34;;;30.04;24.95
72262;BME280;60173;52.112;8.648;2022-08-11T14:06:44;101101.25;;;30.48;24.58
72262;BME280;60173;52.112;8.648;2022-08-11T14:09:12;101100.69;;;30.30;24.75
72262;BME280;60173;52.112;8.648;2022-08-11T14:11:42;101106.72;;;29.87;25.12
72262;BME280;60173;52.112;8.648;2022-08-11T14:14:33;101090.00;;;29.80;25.13
72262;BME280;60173;52.112;8.648;2022-08-11T14:17:04;101088.19;;;29.55;24.89
72262;BME280;60173;52.112;8.648;2022-08-11T14:19:34;101089.00;;;29.56;26.90
72262;BME280;60173;52.112;8.648;2022-08-11T14:22:03;101088.75;;;29.36;25.06
72262;BME280;60173;52.112;8.648;2022-08-11T14:24:36;101085.59;;;29.30;24.61
72262;BME280;60173;52.112;8.648;2022-08-11T14:27:09;101086.88;;;30.08;24.44
72262;BME280;60173;52.112;8.648;2022-08-11T14:29:57;101086.97;;;30.01;24.24
72262;BME280;60173;52.112;8.648;2022-08-11T14:32:24;101080.22;;;29.99;23.62
72262;BME280;60173;52.112;8.648;2022-08-11T14:34:53;101080.56;;;30.38;24.08
72262;BME280;60173;52.112;8.648;2022-08-11T14:37:21;101080.94;;;30.06;24.90
72262;BME280;60173;52.112;8.648;2022-08-11T14:39:59;101075.31;;;30.44;23.63
72262;BME280;60173;52.112;8.648;2022-08-11T14:42:29;101081.75;;;30.41;23.89
72262;BME280;60173;52.112;8.648;2022-08-11T14:44:57;101091.00;;;30.38;22.97
72262;BME280;60173;52.112;8.648;2022-08-11T14:47:26;101078.94;;;30.41;23.23
72262;BME280;60173;52.112;8.648;2022-08-11T14:49:55;101074.97;;;30.38;23.31
72262;BME280;60173;52.112;8.648;2022-08-11T14:52:35;101075.03;;;30.31;23.34
72262;BME280;60173;52.112;8.648;2022-08-11T14:55:02;101076.97;;;30.69;23.69
72262;BME280;60173;52.112;8.648;2022-08-11T14:57:31;101077.75;;;30.69;23.11
72262;BME280;60173;52.112;8.648;2022-08-11T15:00:21;101075.22;;;30.82;24.06
72262;BME280;60173;52.112;8.648;2022-08-11T15:02:47;101073.47;;;30.92;23.51
72262;BME280;60173;52.112;8.648;2022-08-11T15:05:14;101073.88;;;29.94;23.29
72262;BME280;60173;52.112;8.648;2022-08-11T15:07:41;101074.31;;;30.27;23.13
72262;BME280;60173;52.112;8.648;2022-08-11T15:10:09;101067.94;;;30.23;23.66
72262;BME280;60173;52.112;8.648;2022-08-11T15:12:39;101068.22;;;29.98;23.60
72262;BME280;60173;52.112;8.648;2022-08-11T15:15:07;101063.50;;;29.88;22.93
72262;BME280;60173;52.112;8.648;2022-08-11T15:17:35;101063.56;;;30.22;22.71
72262;BME280;60173;52.112;8.648;2022-08-11T15:20:12;101068.91;;;30.09;23.45
72262;BME280;60173;52.112;8.648;2022-08-11T15:22:39;101070.34;;;30.25;23.37
72262;BME280;60173;52.112;8.648;2022-08-11T15:25:05;101055.50;;;30.58;23.80
72262;BME280;60173;52.112;8.648;2022-08-11T15:27:32;101065.53;;;30.25;22.08
72262;BME280;60173;52.112;8.648;2022-08-11T15:30:01;101053.53;;;29.87;22.47
72262;BME280;60173;52.112;8.648;2022-08-11T15:32:29;101062.03;;;30.14;22.69
72262;BME280;60173;52.112;8.648;2022-08-11T15:34:59;101055.09;;;30.26;22.00
72262;BME280;60173;52.112;8.648;2022-08-11T15:37:29;101048.84;;;30.11;22.48
72262;BME280;60173;52.112;8.648;2022-08-11T15:42:26;101046.16;;;30.38;22.66
72262;BME280;60173;52.112;8.648;2022-08-11T15:44:59;101039.59;;;30.48;21.90
72262;BME280;60173;52.112;8.648;2022-08-11T15:47:35;101043.69;;;30.44;22.51
72262;BME280;60173;52.112;8.648;2022-08-11T15:50:04;101035.59;;;30.49;22.32
72262;BME280;60173;52.112;8.648;2022-08-11T15:52:44;101030.00;;;30.49;22.57
72262;BME280;60173;52.112;8.648;2022-08-11T15:55:12;101030.19;;;30.35;22.93
72262;BME280;60173;52.112;8.648;2022-08-11T15:57:39;101018.59;;;30.33;22.85
72262;BME280;60173;52.112;8.648;2022-08-11T16:00:07;101024.53;;;30.38;23.83